createdAt,value
2023-04-30T00:02:01.349Z,80.87
2023-04-30T00:04:28.144Z,80.96
2023-04-30T00:06:55.666Z,80.73
2023-04-30T00:09:22.356Z,80.86
2023-04-30T00:11:49.020Z,80.82
2023-04-30T00:14:15.951Z,81.10
2023-04-30T00:16:43.435Z,80.61
2023-04-30T00:19:10.205Z,79.69
2023-04-30T00:21:36.839Z,79.67
2023-04-30T00:24:03.865Z,78.93
2023-04-30T00:26:30.644Z,78.54
2023-04-30T00:28:57.360Z,77.88
2023-04-30T00:31:24.110Z,77.21
2023-04-30T00:33:51.038Z,76.14
2023-04-30T00:36:17.702Z,76.02
2023-04-30T00:38:44.300Z,75.44
2023-04-30T00:41:11.054Z,75.51
2023-04-30T00:43:37.872Z,75.41
2023-04-30T00:46:06.737Z,75.87
2023-04-30T00:48:34.226Z,76.42
2023-04-30T00:51:04.104Z,75.87
2023-04-30T00:53:31.673Z,75.91
2023-04-30T00:55:59.256Z,76.21
2023-04-30T00:58:26.136Z,76.90
2023-04-30T01:00:53.364Z,77.34
2023-04-30T01:03:20.379Z,77.31
2023-04-30T01:05:47.127Z,77.57
2023-04-30T01:08:14.565Z,78.06
2023-04-30T01:11:04.460Z,77.98
2023-04-30T01:13:40.986Z,78.36
2023-04-30T01:16:22.917Z,78.18
2023-04-30T01:18:57.270Z,78.46
2023-04-30T01:21:24.485Z,78.01
2023-04-30T01:24:37.672Z,78.12
2023-04-30T01:27:40.498Z,78.70
2023-04-30T01:30:09.009Z,79.13
2023-04-30T01:32:36.261Z,79.53
2023-04-30T01:35:03.352Z,80.11
2023-04-30T01:38:07.934Z,80.16
2023-04-30T01:40:47.950Z,80.46
2023-04-30T01:43:23.660Z,81.08
2023-04-30T01:46:15.253Z,81.43
2023-04-30T01:48:50.833Z,81.20
2023-04-30T01:51:30.719Z,80.74
2023-04-30T01:54:06.011Z,81.13
2023-04-30T01:56:40.060Z,81.46
2023-04-30T01:59:08.016Z,81.48
2023-04-30T02:01:35.925Z,81.77
2023-04-30T02:04:03.794Z,81.62
2023-04-30T02:06:31.364Z,81.92
2023-04-30T02:09:03.445Z,82.56
2023-04-30T02:11:30.563Z,81.92
2023-04-30T02:13:57.344Z,82.62
2023-04-30T02:16:24.724Z,82.61
2023-04-30T02:18:51.874Z,83.04
2023-04-30T02:21:18.589Z,83.09
2023-04-30T02:23:45.401Z,82.89
2023-04-30T02:26:12.044Z,83.12
2023-04-30T02:28:38.693Z,83.33
2023-04-30T02:31:05.952Z,83.37
2023-04-30T02:33:32.755Z,83.73
2023-04-30T02:36:00.911Z,83.79
2023-04-30T02:38:27.738Z,83.70
2023-04-30T02:40:54.523Z,84.10
2023-04-30T02:43:21.273Z,84.25
2023-04-30T02:45:48.295Z,84.42
2023-04-30T02:48:15.915Z,84.49
2023-04-30T02:50:42.699Z,84.34
2023-04-30T02:53:09.301Z,84.34
2023-04-30T02:55:36.014Z,83.86
2023-04-30T02:58:03.056Z,84.06
2023-04-30T03:00:29.739Z,84.03
2023-04-30T03:02:56.614Z,83.93
2023-04-30T03:05:24.136Z,83.46
2023-04-30T03:07:50.848Z,83.91
2023-04-30T03:10:19.214Z,84.02
2023-04-30T03:12:46.039Z,84.20
2023-04-30T03:15:12.894Z,84.19
2023-04-30T03:17:39.985Z,84.29
2023-04-30T03:20:07.650Z,84.39
2023-04-30T03:22:34.394Z,84.34
2023-04-30T03:25:01.195Z,84.40
2023-04-30T03:27:27.818Z,84.85
2023-04-30T03:29:54.763Z,84.88
2023-04-30T03:32:21.759Z,85.21
2023-04-30T03:34:48.524Z,85.29
2023-04-30T03:37:15.205Z,85.47
2023-04-30T03:39:42.112Z,85.45
2023-04-30T03:42:08.756Z,85.01
2023-04-30T03:44:35.663Z,84.84
2023-04-30T03:47:02.396Z,85.08
2023-04-30T03:49:29.053Z,85.41
2023-04-30T03:51:55.820Z,85.23
2023-04-30T03:54:22.541Z,85.71
2023-04-30T03:56:49.176Z,85.92
2023-04-30T03:59:16.003Z,85.91
2023-04-30T04:01:42.845Z,85.38
2023-04-30T04:04:09.816Z,85.06
2023-04-30T04:06:36.708Z,84.80
2023-04-30T04:09:04.559Z,84.94
2023-04-30T04:11:31.395Z,85.19
2023-04-30T04:13:58.092Z,84.74
2023-04-30T04:16:26.816Z,85.21
2023-04-30T04:18:53.765Z,85.51
2023-04-30T04:21:20.539Z,85.67
2023-04-30T04:23:47.253Z,85.68
2023-04-30T04:26:15.077Z,85.73
2023-04-30T04:28:42.520Z,86.14
2023-04-30T04:31:09.246Z,85.79
2023-04-30T04:33:37.158Z,85.93
2023-04-30T04:36:04.474Z,85.90
2023-04-30T04:38:31.161Z,85.88
2023-04-30T04:40:57.988Z,85.95
2023-04-30T04:43:25.033Z,85.60
2023-04-30T04:45:52.332Z,85.51
2023-04-30T04:48:18.995Z,85.82
2023-04-30T04:50:45.802Z,85.58
2023-04-30T04:53:13.401Z,85.61
2023-04-30T04:55:40.389Z,85.70
2023-04-30T04:58:07.175Z,85.24
2023-04-30T05:00:33.955Z,85.13
2023-04-30T05:03:00.820Z,84.97
2023-04-30T05:05:27.598Z,84.79
2023-04-30T05:07:54.987Z,84.08
2023-04-30T05:10:21.976Z,83.76
2023-04-30T05:12:48.609Z,83.50
2023-04-30T05:15:15.383Z,83.70
2023-04-30T05:17:42.231Z,83.56
2023-04-30T05:20:09.641Z,83.35
2023-04-30T05:22:36.313Z,83.71
2023-04-30T05:25:02.904Z,83.48
2023-04-30T05:27:29.765Z,83.19
2023-04-30T05:29:56.668Z,83.23
2023-04-30T05:32:23.770Z,83.28
2023-04-30T05:34:50.553Z,83.23
2023-04-30T05:37:19.459Z,82.84
2023-04-30T05:39:46.757Z,82.83
2023-04-30T05:42:13.461Z,83.05
2023-04-30T05:44:41.292Z,82.76
2023-04-30T05:47:08.081Z,82.11
2023-04-30T05:49:36.305Z,81.89
2023-04-30T05:52:03.764Z,81.42
2023-04-30T05:54:31.154Z,80.62
2023-04-30T05:56:58.054Z,80.42
2023-04-30T05:59:25.911Z,80.21
2023-04-30T06:01:52.871Z,80.25
2023-04-30T06:04:19.779Z,79.64
2023-04-30T06:06:46.502Z,79.09
2023-04-30T06:09:13.238Z,78.60
2023-04-30T06:11:42.289Z,78.36
2023-04-30T06:14:10.378Z,77.98
2023-04-30T06:16:37.867Z,78.30
2023-04-30T06:19:04.553Z,78.76
2023-04-30T06:21:31.969Z,77.77
2023-04-30T06:23:58.746Z,77.43
2023-04-30T06:26:25.453Z,76.68
2023-04-30T06:28:52.160Z,77.08
2023-04-30T06:31:18.952Z,76.66
2023-04-30T06:33:45.602Z,75.84
2023-04-30T06:36:12.270Z,75.64
2023-04-30T06:38:38.941Z,74.60
2023-04-30T06:41:05.777Z,73.01
2023-04-30T06:43:32.407Z,71.61
2023-04-30T06:45:59.144Z,71.24
2023-04-30T06:48:26.003Z,72.38
2023-04-30T06:50:52.909Z,72.47
2023-04-30T06:53:19.632Z,72.29
2023-04-30T06:55:49.158Z,72.45
2023-04-30T06:58:15.823Z,73.80
2023-04-30T07:00:43.089Z,71.80
2023-04-30T07:03:10.053Z,72.43
2023-04-30T07:05:37.031Z,71.56
2023-04-30T07:08:04.636Z,71.04
2023-04-30T07:10:31.908Z,69.46
2023-04-30T07:12:59.346Z,71.75
2023-04-30T07:15:26.081Z,70.48
2023-04-30T07:17:52.850Z,71.28
2023-04-30T07:20:19.736Z,70.52
2023-04-30T07:22:46.518Z,71.70
2023-04-30T07:25:13.875Z,70.72
2023-04-30T07:27:40.876Z,69.89
2023-04-30T07:30:09.971Z,68.68
2023-04-30T07:32:37.378Z,69.17
2023-04-30T07:35:04.905Z,69.37
2023-04-30T07:37:33.548Z,64.93
2023-04-30T07:40:01.676Z,65.17
2023-04-30T07:42:28.368Z,66.68
2023-04-30T07:44:55.032Z,68.74
2023-04-30T07:47:21.727Z,68.07
2023-04-30T07:49:49.375Z,67.75
2023-04-30T07:52:15.986Z,67.85
2023-04-30T07:54:42.768Z,66.01
2023-04-30T07:57:09.611Z,67.94
2023-04-30T07:59:36.183Z,65.74
2023-04-30T08:02:02.870Z,66.81
2023-04-30T08:04:29.506Z,68.39
2023-04-30T08:06:56.149Z,67.16
2023-04-30T08:09:23.073Z,64.77
2023-04-30T08:11:49.854Z,66.25
2023-04-30T08:14:16.631Z,65.71
2023-04-30T08:16:43.249Z,69.03
2023-04-30T08:19:09.873Z,69.42
2023-04-30T08:21:36.695Z,65.29
2023-04-30T08:24:03.554Z,65.71
2023-04-30T08:26:30.270Z,64.97
2023-04-30T08:28:56.844Z,63.22
2023-04-30T08:31:23.678Z,61.23
2023-04-30T08:33:50.335Z,65.38
2023-04-30T08:36:16.995Z,64.46
2023-04-30T08:38:44.758Z,63.64
2023-04-30T08:41:13.470Z,60.80
2023-04-30T08:43:41.272Z,60.78
2023-04-30T08:46:08.585Z,60.21
2023-04-30T08:48:35.413Z,61.59
2023-04-30T08:51:03.427Z,62.64
2023-04-30T08:53:31.469Z,62.52
2023-04-30T08:55:58.391Z,60.76
2023-04-30T08:58:25.155Z,59.68
2023-04-30T09:00:51.759Z,59.32
2023-04-30T09:03:19.400Z,59.74
2023-04-30T09:05:46.693Z,58.38
2023-04-30T09:08:19.576Z,57.40
2023-04-30T09:10:46.650Z,54.54
2023-04-30T09:13:13.932Z,55.48
2023-04-30T09:15:41.812Z,57.54
2023-04-30T09:18:18.447Z,56.92
2023-04-30T09:21:03.048Z,54.29
2023-04-30T09:23:30.445Z,54.54
2023-04-30T09:25:57.358Z,48.70
2023-04-30T09:28:26.424Z,48.01
2023-04-30T09:30:53.618Z,46.96
2023-04-30T09:33:20.547Z,50.23
2023-04-30T09:35:47.252Z,52.93
2023-04-30T09:38:31.942Z,51.75
2023-04-30T09:41:01.016Z,50.39
2023-04-30T09:43:29.060Z,50.04
2023-04-30T09:45:58.568Z,46.11
2023-04-30T09:48:29.613Z,45.37
2023-04-30T09:50:56.820Z,43.35
2023-04-30T09:53:24.317Z,42.55
2023-04-30T09:55:51.850Z,39.42
2023-04-30T09:58:19.499Z,36.69
2023-04-30T10:00:49.458Z,37.31
2023-04-30T10:03:17.051Z,37.42
2023-04-30T10:05:47.611Z,40.17
2023-04-30T10:08:47.807Z,41.44
2023-04-30T10:11:18.574Z,41.53
2023-04-30T10:13:51.292Z,37.75
2023-04-30T10:16:40.337Z,37.62
2023-04-30T10:19:30.320Z,41.59
2023-04-30T10:21:57.208Z,45.21
2023-04-30T10:24:24.115Z,39.25
2023-04-30T10:26:50.838Z,35.75
2023-04-30T10:29:18.407Z,35.67
2023-04-30T10:31:47.691Z,33.69
2023-04-30T10:34:50.465Z,33.31
2023-04-30T10:37:43.340Z,29.95
2023-04-30T10:40:10.383Z,29.89
2023-04-30T10:42:37.296Z,34.33
2023-04-30T10:45:04.202Z,37.86
2023-04-30T10:47:31.370Z,34.54
2023-04-30T10:50:05.342Z,31.89
2023-04-30T10:52:32.053Z,33.49
2023-04-30T10:54:58.732Z,29.62
2023-04-30T10:57:29.637Z,32.54
2023-04-30T11:00:20.789Z,32.27
2023-04-30T11:02:50.331Z,33.50
2023-04-30T11:05:19.352Z,30.34
2023-04-30T11:07:59.126Z,30.84
2023-04-30T11:10:28.527Z,29.68
2023-04-30T11:12:59.414Z,30.92
2023-04-30T11:15:31.889Z,27.91
2023-04-30T11:17:59.551Z,27.31
2023-04-30T11:20:26.766Z,29.25
2023-04-30T11:23:14.209Z,32.11
2023-04-30T11:25:44.949Z,34.66
2023-04-30T11:28:19.522Z,33.57
2023-04-30T11:30:53.761Z,31.82
2023-04-30T11:33:21.945Z,27.80
2023-04-30T11:35:53.342Z,29.95
2023-04-30T11:38:23.724Z,30.33
2023-04-30T11:40:51.136Z,29.54
2023-04-30T11:43:22.693Z,30.91
2023-04-30T11:46:08.576Z,29.31
2023-04-30T11:48:37.526Z,30.89
2023-04-30T11:51:27.242Z,28.61
2023-04-30T11:53:54.156Z,29.99
2023-04-30T11:56:22.242Z,28.50
2023-04-30T11:58:50.482Z,27.80
2023-04-30T12:01:18.402Z,27.69
2023-04-30T12:03:47.088Z,28.70
2023-04-30T12:06:24.961Z,29.43
2023-04-30T12:08:55.823Z,26.92
2023-04-30T12:11:25.654Z,29.53
2023-04-30T12:13:52.788Z,27.04
2023-04-30T12:16:20.133Z,27.79
2023-04-30T12:18:47.878Z,28.96
2023-04-30T12:21:15.305Z,28.27
2023-04-30T12:23:42.242Z,26.72
2023-04-30T12:26:08.914Z,29.04
2023-04-30T12:28:36.371Z,26.52
2023-04-30T12:31:06.052Z,25.17
2023-04-30T12:33:32.915Z,27.39
2023-04-30T12:35:59.780Z,22.73
2023-04-30T12:38:26.530Z,24.92
2023-04-30T12:40:53.209Z,25.57
2023-04-30T12:43:19.910Z,26.23
2023-04-30T12:45:55.768Z,24.52
2023-04-30T12:48:24.653Z,27.57
2023-04-30T12:50:53.213Z,24.37
2023-04-30T12:53:20.727Z,23.66
2023-04-30T12:56:16.839Z,26.27
2023-04-30T12:58:49.843Z,26.48
2023-04-30T13:01:21.838Z,24.86
2023-04-30T13:03:48.684Z,24.75
2023-04-30T13:06:16.356Z,22.41
2023-04-30T13:08:57.140Z,24.70
2023-04-30T13:11:26.304Z,26.29
2023-04-30T13:13:55.463Z,22.49
2023-04-30T13:16:24.740Z,24.91
2023-04-30T13:18:52.002Z,25.25
2023-04-30T13:21:18.700Z,24.08
2023-04-30T13:23:52.721Z,23.02
2023-04-30T13:26:21.211Z,24.96
2023-04-30T13:28:47.898Z,22.16
2023-04-30T13:31:14.576Z,23.51
2023-04-30T13:33:41.557Z,21.86
2023-04-30T13:36:08.307Z,21.38
2023-04-30T13:38:34.967Z,21.18
2023-04-30T13:41:01.567Z,20.45
2023-04-30T13:43:28.448Z,22.17
2023-04-30T13:45:55.128Z,22.16
2023-04-30T13:48:21.832Z,21.86
2023-04-30T13:50:48.460Z,20.86
2023-04-30T13:53:15.290Z,19.31
2023-04-30T13:55:41.931Z,19.23
2023-04-30T13:58:08.799Z,18.62
2023-04-30T14:00:35.658Z,21.15
2023-04-30T14:03:02.362Z,18.41
2023-04-30T14:05:29.071Z,19.95
2023-04-30T14:07:55.796Z,19.88
2023-04-30T14:10:22.396Z,19.81
2023-04-30T14:12:49.108Z,22.71
2023-04-30T14:15:16.419Z,22.70
2023-04-30T14:17:43.269Z,21.90
2023-04-30T14:20:11.312Z,22.11
2023-04-30T14:22:38.742Z,21.61
2023-04-30T14:25:06.032Z,21.22
2023-04-30T14:27:32.702Z,20.85
2023-04-30T14:29:59.310Z,23.29
2023-04-30T14:32:26.909Z,24.97
2023-04-30T14:34:54.108Z,23.99
2023-04-30T14:37:20.750Z,27.17
2023-04-30T14:39:47.503Z,27.73
2023-04-30T14:42:14.181Z,29.00
2023-04-30T14:44:40.868Z,28.60
2023-04-30T14:47:07.753Z,30.41
2023-04-30T14:49:34.415Z,31.96
2023-04-30T14:52:01.528Z,35.63
2023-04-30T14:54:28.143Z,33.53
2023-04-30T14:56:54.965Z,34.69
2023-04-30T14:59:21.550Z,31.70
2023-04-30T15:01:48.281Z,34.47
2023-04-30T15:04:15.067Z,33.82
2023-04-30T15:06:42.174Z,34.40
2023-04-30T15:09:08.919Z,33.63
2023-04-30T15:11:35.745Z,33.54
2023-04-30T15:14:02.472Z,34.62
2023-04-30T15:16:29.753Z,35.73
2023-04-30T15:18:56.737Z,34.76
2023-04-30T15:21:23.393Z,35.74
2023-04-30T15:23:50.728Z,33.16
2023-04-30T15:26:17.394Z,33.80
2023-04-30T15:28:44.331Z,34.95
2023-04-30T15:31:11.438Z,33.70
2023-04-30T15:33:39.597Z,36.08
2023-04-30T15:36:06.543Z,35.82
2023-04-30T15:38:33.478Z,35.30
2023-04-30T15:41:00.266Z,35.54
2023-04-30T15:43:26.881Z,35.24
2023-04-30T15:45:53.529Z,36.09
2023-04-30T15:48:20.151Z,35.82
2023-04-30T15:50:46.883Z,36.68
2023-04-30T15:53:13.483Z,38.08
2023-04-30T15:55:40.402Z,36.07
2023-04-30T15:58:07.180Z,35.07
2023-04-30T16:00:33.954Z,36.33
2023-04-30T16:03:00.816Z,35.99
2023-04-30T16:05:27.749Z,34.17
2023-04-30T16:07:54.626Z,34.24
2023-04-30T16:10:21.645Z,35.61
2023-04-30T16:12:48.621Z,32.95
2023-04-30T16:15:15.386Z,33.05
2023-04-30T16:17:42.230Z,35.28
2023-04-30T16:20:09.257Z,35.69
2023-04-30T16:22:37.381Z,35.89
2023-04-30T16:25:04.545Z,35.97
2023-04-30T16:27:31.247Z,37.95
2023-04-30T16:29:58.021Z,39.20
2023-04-30T16:32:25.395Z,38.21
2023-04-30T16:34:52.198Z,39.17
2023-04-30T16:37:18.864Z,37.98
2023-04-30T16:39:45.761Z,40.50
2023-04-30T16:42:12.313Z,39.38
2023-04-30T16:44:39.506Z,39.36
2023-04-30T16:47:06.128Z,40.57
2023-04-30T16:49:32.745Z,38.95
2023-04-30T16:51:59.440Z,43.59
2023-04-30T16:54:26.085Z,39.80
2023-04-30T16:56:52.725Z,40.18
2023-04-30T16:59:19.557Z,42.30
2023-04-30T17:01:46.784Z,40.93
2023-04-30T17:04:14.173Z,41.92
2023-04-30T17:06:41.597Z,41.95
2023-04-30T17:09:08.692Z,40.89
2023-04-30T17:11:35.564Z,39.91
2023-04-30T17:14:02.229Z,44.33
2023-04-30T17:16:29.016Z,42.67
2023-04-30T17:18:55.925Z,45.22
2023-04-30T17:21:22.561Z,43.78
2023-04-30T17:23:49.254Z,43.61
2023-04-30T17:26:15.902Z,45.47
2023-04-30T17:28:42.558Z,44.21
2023-04-30T17:31:09.604Z,46.42
2023-04-30T17:33:36.350Z,45.36
2023-04-30T17:36:03.184Z,44.45
2023-04-30T17:38:30.976Z,45.14
2023-04-30T17:40:57.832Z,48.16
2023-04-30T17:43:24.978Z,48.27
2023-04-30T17:45:53.420Z,47.82
2023-04-30T17:48:20.312Z,49.58
2023-04-30T17:50:47.090Z,49.96
2023-04-30T17:53:13.918Z,48.85
2023-04-30T17:55:40.640Z,48.68
2023-04-30T17:58:10.160Z,49.75
2023-04-30T18:00:40.524Z,50.51
2023-04-30T18:03:07.430Z,52.86
2023-04-30T18:05:35.564Z,52.82
2023-04-30T18:08:05.970Z,52.39
2023-04-30T18:10:34.633Z,52.69
2023-04-30T18:13:01.423Z,55.15
2023-04-30T18:15:28.195Z,52.86
2023-04-30T18:17:55.032Z,53.10
2023-04-30T18:20:22.159Z,53.85
2023-04-30T18:22:48.975Z,56.79
2023-04-30T18:25:17.030Z,54.95
2023-04-30T18:27:43.848Z,54.20
2023-04-30T18:30:12.474Z,54.55
2023-04-30T18:32:39.212Z,57.05
2023-04-30T18:35:06.332Z,57.93
2023-04-30T18:37:33.186Z,58.82
2023-04-30T18:40:00.565Z,56.07
2023-04-30T18:42:27.277Z,56.31
2023-04-30T18:44:55.304Z,58.54
2023-04-30T18:47:22.044Z,56.76
2023-04-30T18:49:48.612Z,57.19
2023-04-30T18:52:15.262Z,58.26
2023-04-30T18:54:42.577Z,58.88
2023-04-30T18:57:12.344Z,59.46
2023-04-30T18:59:41.797Z,57.49
2023-04-30T19:02:09.521Z,58.49
2023-04-30T19:04:37.422Z,59.65
2023-04-30T19:07:04.211Z,60.36
2023-04-30T19:09:30.842Z,64.18
2023-04-30T19:11:57.907Z,63.31
2023-04-30T19:14:24.609Z,63.13
2023-04-30T19:16:51.287Z,63.32
2023-04-30T19:19:17.998Z,61.69
2023-04-30T19:21:44.666Z,65.81
2023-04-30T19:24:11.356Z,65.71
2023-04-30T19:26:38.012Z,64.73
2023-04-30T19:29:04.734Z,63.98
2023-04-30T19:31:35.175Z,63.88
2023-04-30T19:34:02.029Z,65.05
2023-04-30T19:36:28.766Z,65.40
2023-04-30T19:38:56.134Z,63.20
2023-04-30T19:41:22.956Z,63.01
2023-04-30T19:43:49.766Z,61.22
2023-04-30T19:46:16.447Z,62.37
2023-04-30T19:48:44.410Z,64.33
2023-04-30T19:51:11.240Z,65.74
2023-04-30T19:53:38.014Z,67.71
2023-04-30T19:56:04.776Z,65.16
2023-04-30T19:58:31.475Z,66.38
2023-04-30T20:00:58.146Z,66.77
2023-04-30T20:03:25.513Z,67.51
2023-04-30T20:05:52.482Z,67.59
2023-04-30T20:08:19.204Z,66.43
2023-04-30T20:10:47.841Z,66.30
2023-04-30T20:13:15.822Z,66.79
2023-04-30T20:15:43.096Z,67.34
2023-04-30T20:18:09.915Z,69.51
2023-04-30T20:20:36.858Z,68.08
2023-04-30T20:23:14.059Z,67.83
2023-04-30T20:25:45.690Z,69.14
2023-04-30T20:28:19.046Z,70.21
2023-04-30T20:30:46.584Z,67.23
2023-04-30T20:33:14.589Z,68.81
2023-04-30T20:35:44.042Z,67.42
2023-04-30T20:38:11.953Z,68.92
2023-04-30T20:40:41.555Z,68.07
2023-04-30T20:43:10.259Z,69.81
2023-04-30T20:45:37.262Z,70.24
2023-04-30T20:48:05.689Z,68.34
2023-04-30T20:50:32.519Z,68.31
2023-04-30T20:52:59.131Z,67.95
2023-04-30T20:55:26.703Z,67.96
2023-04-30T20:57:53.348Z,68.82
2023-04-30T21:00:20.752Z,69.12
2023-04-30T21:02:47.682Z,67.92
2023-04-30T21:05:14.662Z,66.75
2023-04-30T21:07:41.486Z,68.00
2023-04-30T21:10:08.901Z,69.34
2023-04-30T21:12:35.702Z,69.43
2023-04-30T21:15:02.588Z,70.34
2023-04-30T21:17:29.369Z,69.04
2023-04-30T21:19:57.158Z,68.83
2023-04-30T21:22:24.714Z,68.58
2023-04-30T21:24:54.742Z,69.22
2023-04-30T21:27:21.749Z,69.13
2023-04-30T21:29:48.814Z,67.38
2023-04-30T21:32:15.406Z,68.20
2023-04-30T21:34:42.144Z,68.85
2023-04-30T21:37:08.772Z,70.11
2023-04-30T21:39:35.476Z,71.56
2023-04-30T21:42:04.449Z,72.39
2023-04-30T21:44:32.885Z,73.09
2023-04-30T21:47:00.014Z,72.44
2023-04-30T21:49:27.109Z,72.59
2023-04-30T21:51:53.803Z,73.11
2023-04-30T21:54:20.720Z,72.38
2023-04-30T21:56:47.546Z,72.13
2023-04-30T21:59:14.112Z,73.03
2023-04-30T22:01:41.063Z,73.43
2023-04-30T22:04:07.740Z,72.59
2023-04-30T22:06:34.747Z,72.79
2023-04-30T22:09:01.758Z,73.20
2023-04-30T22:11:28.821Z,73.38
2023-04-30T22:13:55.487Z,70.82
2023-04-30T22:16:22.526Z,70.98
2023-04-30T22:18:49.207Z,71.89
2023-04-30T22:21:16.020Z,71.08
2023-04-30T22:23:42.810Z,71.46
2023-04-30T22:26:11.332Z,71.41
2023-04-30T22:28:38.291Z,71.54
2023-04-30T22:31:05.442Z,71.34
2023-04-30T22:33:37.166Z,72.50
2023-04-30T22:36:06.005Z,72.71
2023-04-30T22:38:33.220Z,71.96
2023-04-30T22:41:00.631Z,73.27
2023-04-30T22:43:31.335Z,71.77
2023-04-30T22:45:58.654Z,72.68
2023-04-30T22:48:26.894Z,72.07
2023-04-30T22:50:53.966Z,72.50
2023-04-30T22:53:20.906Z,73.54
2023-04-30T22:55:47.595Z,75.14
2023-04-30T22:58:14.356Z,73.63
2023-04-30T23:00:41.148Z,72.51
2023-04-30T23:03:08.083Z,73.24
2023-04-30T23:05:35.002Z,73.54
2023-04-30T23:08:01.631Z,75.50
2023-04-30T23:10:28.279Z,74.77
2023-04-30T23:12:56.145Z,72.69
2023-04-30T23:15:22.899Z,71.43
2023-04-30T23:17:49.785Z,71.43
2023-04-30T23:20:16.650Z,72.34
2023-04-30T23:22:43.895Z,74.31
2023-04-30T23:25:11.686Z,73.49
2023-04-30T23:27:38.302Z,74.91
2023-04-30T23:30:05.627Z,73.95
2023-04-30T23:32:33.407Z,74.60
2023-04-30T23:35:00.155Z,72.63
2023-04-30T23:37:27.212Z,71.10
2023-04-30T23:39:54.433Z,71.34
2023-04-30T23:42:21.295Z,73.71
2023-04-30T23:44:47.948Z,73.42
2023-04-30T23:47:14.599Z,73.47
2023-04-30T23:49:41.709Z,73.70
2023-04-30T23:52:12.154Z,74.39
2023-04-30T23:54:38.730Z,73.43
2023-04-30T23:57:05.501Z,72.24
2023-04-30T23:59:32.218Z,74.03
